Time;durP1;ratioP1;P1;durP2;ratioP2;P2;SDS_P1;SDS_P2;PMS_P1;PMS_P2;Temp;Humidity;BMP_temperature;BMP_pressure;BME280_temperature;BME280_humidity;BME280_pressure;Samples;Min_cycle;Max_cycle;Signal;HPM_P1;HPM_P2
2022/10/07 00:01:20;;;;;;;37.42;6.25;;;;;;;9.19;100.00;99090.22;5031400;28;20889;-58
2022/10/07 00:03:45;;;;;;;37.05;6.25;;;;;;;9.21;100.00;99087.63;5036624;28;20037;-56
2022/10/07 00:06:13;;;;;;;37.42;6.30;;;;;;;8.47;100.00;99084.47;5035190;28;20037;-58
2022/10/07 00:08:44;;;;;;;38.85;6.55;;;;;;;8.77;100.00;99089.22;5033174;28;20087;-57
2022/10/07 00:11:12;;;;;;;37.08;6.60;;;;;;;8.49;100.00;99095.72;5032492;28;20041;-58
2022/10/07 00:13:40;;;;;;;50.85;7.72;;;;;;;8.31;100.00;99085.56;5037730;28;20036;-59
2022/10/07 00:16:14;;;;;;;26.70;5.70;;;;;;;8.40;100.00;99088.03;5033684;28;20595;-58
2022/10/07 00:18:40;;;;;;;32.38;5.60;;;;;;;9.00;100.00;99083.63;5032335;28;20013;-59
2022/10/07 00:21:08;;;;;;;29.98;5.70;;;;;;;9.03;100.00;99088.78;5033288;28;20041;-57
2022/10/07 00:23:35;;;;;;;30.17;5.95;;;;;;;8.60;100.00;99090.34;5032052;28;20979;-59
2022/10/07 00:26:06;;;;;;;28.55;5.90;;;;;;;8.01;100.00;99092.03;5036697;28;20041;-56
2022/10/07 00:28:31;;;;;;;24.75;5.57;;;;;;;8.17;100.00;99095.28;5034445;28;20040;-59
2022/10/07 00:31:03;;;;;;;33.05;6.13;;;;;;;8.28;100.00;99078.63;5032747;28;20414;-56
2022/10/07 00:33:37;;;;;;;32.83;5.55;;;;;;;8.82;100.00;99084.78;5033778;28;20029;-56
2022/10/07 00:36:11;;;;;;;26.80;5.70;;;;;;;8.12;100.00;99082.34;5034364;28;20160;-56
2022/10/07 00:38:37;;;;;;;28.95;6.10;;;;;;;7.88;100.00;99076.63;5036373;28;20512;-57
2022/10/07 00:41:03;;;;;;;32.90;6.10;;;;;;;8.00;100.00;99066.94;5030187;28;20033;-55
2022/10/07 00:43:30;;;;;;;29.95;6.15;;;;;;;8.04;100.00;99073.81;5032894;28;20490;-56
2022/10/07 00:46:06;;;;;;;32.38;6.65;;;;;;;8.04;100.00;99061.66;5032419;28;20712;-55
2022/10/07 00:48:35;;;;;;;24.20;5.15;;;;;;;8.74;100.00;99068.47;5033991;28;20021;-56
2022/10/07 00:51:01;;;;;;;28.08;5.47;;;;;;;8.88;100.00;99056.94;5032057;28;20581;-56
2022/10/07 00:53:32;;;;;;;29.63;5.75;;;;;;;8.44;100.00;99055.91;5035757;28;20076;-56
2022/10/07 00:56:02;;;;;;;35.78;6.40;;;;;;;8.78;100.00;99051.91;5035401;28;20041;-55
2022/10/07 00:58:34;;;;;;;29.77;5.40;;;;;;;8.93;100.00;99041.22;5034565;28;20029;-56
2022/10/07 01:01:01;;;;;;;33.20;5.95;;;;;;;8.73;100.00;99051.13;5030864;28;20179;-56
2022/10/07 01:03:27;;;;;;;24.13;5.18;;;;;;;8.97;100.00;99044.63;5034884;28;20086;-57
2022/10/07 01:05:53;;;;;;;33.15;6.18;;;;;;;8.67;100.00;99045.16;5032999;28;20495;-56
2022/10/07 01:08:21;;;;;;;34.65;5.97;;;;;;;8.19;100.00;99037.19;5032573;28;20602;-56
2022/10/07 01:11:12;;;;;;;24.10;5.13;;;;;;;9.04;100.00;99036.72;5032840;28;20296;-57
2022/10/07 01:14:06;;;;;;;34.17;5.90;;;;;;;8.25;100.00;99036.25;5033088;28;20153;-56
2022/10/07 01:16:54;;;;;;;27.00;5.45;;;;;;;7.93;100.00;99034.13;5033345;28;20041;-57
2022/10/07 01:19:38;;;;;;;36.28;6.13;;;;;;;7.94;100.00;99028.91;5031902;28;20029;-55
2022/10/07 01:22:20;;;;;;;24.42;5.07;;;;;;;7.90;100.00;99025.50;5031198;28;20892;-56
2022/10/07 01:25:11;;;;;;;32.75;5.70;;;;;;;8.00;100.00;99030.56;5033876;28;20025;-56
2022/10/07 01:27:42;;;;;;;29.73;5.30;;;;;;;8.02;100.00;99034.00;5033367;28;20131;-55
2022/10/07 01:30:08;;;;;;;28.02;5.60;;;;;;;7.79;100.00;99021.31;5031950;28;20040;-56
2022/10/07 01:32:39;;;;;;;28.08;5.68;;;;;;;7.38;100.00;99017.50;5034082;28;20502;-55
2022/10/07 01:35:10;;;;;;;26.20;5.40;;;;;;;7.29;100.00;99011.53;5031662;28;20035;-58
2022/10/07 01:37:41;;;;;;;25.92;5.20;;;;;;;7.98;100.00;99011.53;5031346;28;20136;-56
2022/10/07 01:40:15;;;;;;;31.48;6.07;;;;;;;7.54;100.00;99003.47;5019563;28;20060;-56
2022/10/07 01:42:40;;;;;;;32.42;5.78;;;;;;;7.27;100.00;99005.50;5031296;28;20512;-59
2022/10/07 01:45:11;;;;;;;26.95;5.65;;;;;;;7.46;100.00;99000.97;5030831;28;20032;-56
2022/10/07 01:47:36;;;;;;;42.60;6.65;;;;;;;7.31;100.00;98999.38;5031333;28;20393;-59
2022/10/07 01:50:10;;;;;;;34.00;6.22;;;;;;;7.22;100.00;98996.91;5030224;28;20506;-55
2022/10/07 01:52:44;;;;;;;33.47;6.03;;;;;;;7.50;100.00;99000.03;5031788;28;20099;-56
2022/10/07 01:55:34;;;;;;;26.38;5.18;;;;;;;7.76;100.00;98979.81;5032233;28;20025;-56
2022/10/07 01:58:24;;;;;;;21.45;4.70;;;;;;;7.65;100.00;98988.59;5034101;28;20075;-58
2022/10/07 02:01:10;;;;;;;31.08;5.70;;;;;;;7.24;100.00;98979.59;5031629;28;20071;-56
2022/10/07 02:03:55;;;;;;;28.60;5.30;;;;;;;7.59;100.00;98975.72;5031580;28;20033;-55
2022/10/07 02:06:35;;;;;;;29.10;5.22;;;;;;;7.15;100.00;98977.13;5032338;28;20607;-55
2022/10/07 02:09:06;;;;;;;23.75;4.93;;;;;;;7.22;100.00;98972.69;5031165;28;20048;-57
2022/10/07 02:11:38;;;;;;;26.80;5.30;;;;;;;7.54;100.00;98972.31;5032610;28;20135;-56
2022/10/07 02:14:10;;;;;;;34.13;5.68;;;;;;;7.55;100.00;98970.56;5032242;28;20112;-56
2022/10/07 02:17:00;;;;;;;26.10;5.15;;;;;;;7.84;100.00;98971.00;5029234;28;20036;-55
2022/10/07 02:19:34;;;;;;;39.38;6.35;;;;;;;7.68;100.00;98978.19;5032576;28;20517;-56
2022/10/07 02:22:03;;;;;;;39.65;5.93;;;;;;;7.73;100.00;98970.31;5029708;28;20116;-56
2022/10/07 02:24:32;;;;;;;35.75;5.85;;;;;;;7.52;100.00;98972.31;5030627;28;20021;-58
2022/10/07 02:27:02;;;;;;;38.58;6.07;;;;;;;7.60;100.00;98968.75;5029027;28;20042;-55
2022/10/07 02:29:31;;;;;;;37.30;5.43;;;;;;;7.95;100.00;98963.06;5031111;28;20043;-58
2022/10/07 02:32:00;;;;;;;41.58;6.15;;;;;;;7.78;100.00;98965.06;5033243;28;20041;-56
2022/10/07 02:34:28;;;;;;;27.77;4.95;;;;;;;7.13;100.00;98964.16;5032197;28;20108;-55
2022/10/07 02:36:59;;;;;;;32.88;5.60;;;;;;;7.24;100.00;98970.94;5030901;28;20041;-55
2022/10/07 02:39:27;;;;;;;39.07;6.00;;;;;;;7.36;100.00;98959.56;5031003;28;20438;-56
2022/10/07 02:42:17;;;;;;;29.60;4.90;;;;;;;7.67;100.00;98965.22;5031628;28;20514;-55
2022/10/07 02:44:59;;;;;;;28.63;5.60;;;;;;;7.27;100.00;98955.34;5031973;28;20029;-57
2022/10/07 02:47:37;;;;;;;28.45;5.32;;;;;;;7.49;100.00;98961.13;5031550;28;20114;-56
2022/10/07 02:50:09;;;;;;;29.00;4.82;;;;;;;7.35;100.00;98950.91;5031251;28;20052;-54
2022/10/07 02:52:36;;;;;;;28.95;5.20;;;;;;;7.30;100.00;98956.16;5031373;28;20025;-56
2022/10/07 02:55:08;;;;;;;30.73;5.45;;;;;;;6.92;100.00;98954.00;5033214;28;20036;-57
2022/10/07 02:57:38;;;;;;;27.30;5.20;;;;;;;7.04;100.00;98947.81;5035433;28;20102;-57
2022/10/07 03:00:06;;;;;;;28.05;5.10;;;;;;;7.38;100.00;98950.00;5034585;28;20486;-54
2022/10/07 03:02:49;;;;;;;36.47;5.45;;;;;;;7.44;100.00;98955.97;5034475;28;20040;-56
2022/10/07 03:05:20;;;;;;;30.58;5.53;;;;;;;6.63;100.00;98952.56;5034210;28;20033;-55
2022/10/07 03:07:47;;;;;;;25.13;5.00;;;;;;;6.62;100.00;98940.50;5037768;28;20060;-56
2022/10/07 03:10:13;;;;;;;32.50;4.95;;;;;;;7.55;100.00;98939.41;5034313;28;20028;-55
2022/10/07 03:12:38;;;;;;;26.98;5.13;;;;;;;7.12;100.00;98952.03;5036200;28;20028;-55
2022/10/07 03:15:04;;;;;;;29.52;4.80;;;;;;;7.33;100.00;98937.06;5034711;28;20945;-55
2022/10/07 03:17:29;;;;;;;39.63;5.95;;;;;;;6.76;100.00;98942.94;5035528;28;20119;-54
2022/10/07 03:19:55;;;;;;;25.38;4.90;;;;;;;7.08;100.00;98939.16;5035853;28;20039;-54
2022/10/07 03:22:20;;;;;;;31.55;5.20;;;;;;;7.24;100.00;98939.78;5033395;28;20036;-54
2022/10/07 03:24:45;;;;;;;27.42;4.72;;;;;;;6.96;100.00;98934.94;5035857;28;20041;-55
2022/10/07 03:27:11;;;;;;;28.42;5.00;;;;;;;6.42;100.00;98929.47;5036474;28;20609;-56
2022/10/07 03:29:36;;;;;;;50.05;7.00;;;;;;;6.35;100.00;98924.31;5035873;28;20547;-57
2022/10/07 03:32:02;;;;;;;28.15;4.82;;;;;;;7.27;100.00;98924.19;5037477;28;20044;-55
2022/10/07 03:34:27;;;;;;;29.05;5.18;;;;;;;7.21;100.00;98929.47;5037400;28;20055;-56
2022/10/07 03:36:54;;;;;;;32.78;5.53;;;;;;;6.69;100.00;98926.59;5034482;28;20037;-57
2022/10/07 03:39:19;;;;;;;23.67;4.72;;;;;;;6.86;100.00;98925.56;5036097;28;20889;-56
2022/10/07 03:41:47;;;;;;;34.38;5.28;;;;;;;7.61;100.00;98908.16;5033725;28;20081;-55
2022/10/07 03:44:13;;;;;;;32.92;5.07;;;;;;;7.38;100.00;98927.50;5035871;28;20071;-54
2022/10/07 03:46:38;;;;;;;33.72;5.38;;;;;;;7.57;100.00;98916.88;5034532;28;20673;-59
2022/10/07 03:49:04;;;;;;;28.45;5.03;;;;;;;6.92;100.00;98920.28;5034263;28;20338;-58
2022/10/07 03:51:29;;;;;;;26.02;5.05;;;;;;;7.34;100.00;98915.44;5034812;28;20198;-56
2022/10/07 03:53:56;;;;;;;36.72;6.43;;;;;;;6.76;100.00;98917.00;5033784;28;20029;-57
2022/10/07 03:56:22;;;;;;;29.52;4.95;;;;;;;7.29;100.00;98917.25;5036019;28;20033;-57
2022/10/07 03:58:47;;;;;;;27.08;5.10;;;;;;;7.42;100.00;98913.59;5035833;28;20116;-58
2022/10/07 04:01:13;;;;;;;35.90;5.80;;;;;;;7.51;100.00;98916.06;5032193;28;20252;-57
2022/10/07 04:03:39;;;;;;;25.27;4.93;;;;;;;7.33;100.00;98916.31;5033902;28;20028;-60
2022/10/07 04:06:05;;;;;;;42.47;6.57;;;;;;;6.70;100.00;98912.75;5034282;28;20045;-58
2022/10/07 04:08:32;;;;;;;33.67;5.80;;;;;;;6.95;100.00;98908.16;5031844;28;20025;-59
2022/10/07 04:10:58;;;;;;;35.63;5.72;;;;;;;7.20;100.00;98917.38;5033308;28;20124;-57
2022/10/07 04:13:23;;;;;;;33.58;5.25;;;;;;;7.40;100.00;98909.31;5033793;28;20059;-55
2022/10/07 04:15:49;;;;;;;28.67;5.20;;;;;;;7.35;100.00;98896.38;5034489;28;20116;-54
2022/10/07 04:18:14;;;;;;;32.78;5.68;;;;;;;7.24;100.00;98899.16;5034344;28;20115;-55
2022/10/07 04:20:40;;;;;;;29.20;5.57;;;;;;;7.53;100.00;98906.56;5034419;28;20610;-57
2022/10/07 04:23:05;;;;;;;26.40;5.57;;;;;;;6.86;100.00;98892.69;5035870;28;20550;-55
2022/10/07 04:25:33;;;;;;;32.72;5.70;;;;;;;7.28;100.00;98884.41;5034543;28;20033;-54
2022/10/07 04:28:04;;;;;;;28.55;5.47;;;;;;;7.17;100.00;98881.06;5036277;28;20123;-55
2022/10/07 04:30:33;;;;;;;27.90;5.40;;;;;;;7.56;100.00;98889.22;5033771;28;20040;-57
2022/10/07 04:33:00;;;;;;;28.80;4.95;;;;;;;7.32;100.00;98883.47;5034806;28;20025;-58
2022/10/07 04:35:26;;;;;;;31.67;5.97;;;;;;;7.08;100.00;98882.91;5033308;28;20075;-59
2022/10/07 04:37:52;;;;;;;24.48;4.57;;;;;;;7.70;100.00;98882.03;5036498;28;20499;-57
2022/10/07 04:40:19;;;;;;;27.13;5.10;;;;;;;7.61;100.00;98885.66;5034539;28;20029;-57
2022/10/07 04:45:30;;;;;;;33.80;6.45;;;;;;;6.41;100.00;98873.31;5035766;28;20044;-58
2022/10/07 04:47:56;;;;;;;28.65;5.53;;;;;;;6.61;100.00;98870.50;5033218;28;20044;-57
2022/10/07 04:50:21;;;;;;;25.75;4.82;;;;;;;7.36;100.00;98872.16;5033358;28;20021;-57
2022/10/07 04:52:47;;;;;;;28.45;5.80;;;;;;;6.61;100.00;98868.78;5033315;28;20451;-57
2022/10/07 04:55:13;;;;;;;27.70;5.30;;;;;;;7.14;100.00;98859.47;5033247;28;20114;-60
2022/10/07 04:57:40;;;;;;;34.95;5.60;;;;;;;7.81;100.00;98861.97;5035458;28;20032;-58
2022/10/07 05:00:07;;;;;;;32.08;5.43;;;;;;;7.82;100.00;98863.69;5032981;28;20033;-60
2022/10/07 05:02:32;;;;;;;31.33;5.88;;;;;;;7.65;100.00;98863.09;5034927;28;20122;-58
2022/10/07 05:04:58;;;;;;;33.50;5.55;;;;;;;7.71;100.00;98853.47;5035035;28;20140;-57
2022/10/07 05:07:24;;;;;;;31.42;5.50;;;;;;;7.70;100.00;98853.47;5031285;28;20064;-57
2022/10/07 05:09:50;;;;;;;40.60;6.28;;;;;;;7.86;100.00;98847.16;5032428;28;20029;-59
2022/10/07 05:12:18;;;;;;;30.10;5.68;;;;;;;7.20;100.00;98849.91;5031200;28;20091;-58
2022/10/07 05:14:44;;;;;;;27.75;5.00;;;;;;;7.88;100.00;98837.63;5031962;28;20075;-58
2022/10/07 05:17:11;;;;;;;31.85;6.32;;;;;;;7.40;100.00;98849.63;5031794;28;20705;-60
2022/10/07 05:19:36;;;;;;;44.05;7.25;;;;;;;7.37;100.00;98845.34;5031988;28;20541;-60
2022/10/07 05:22:02;;;;;;;34.67;6.85;;;;;;;7.32;100.00;98840.19;5032201;28;20041;-57
2022/10/07 05:24:28;;;;;;;32.38;5.97;;;;;;;7.20;100.00;98839.53;5034217;28;20125;-57
2022/10/07 05:26:54;;;;;;;40.13;6.60;;;;;;;7.40;100.00;98832.31;5032024;28;20127;-58
2022/10/07 05:29:19;;;;;;;28.13;5.57;;;;;;;7.31;100.00;98822.06;5032940;28;20146;-57
2022/10/07 05:31:45;;;;;;;33.88;5.88;;;;;;;7.39;100.00;98815.03;5032493;28;20115;-57
2022/10/07 05:34:10;;;;;;;30.58;5.93;;;;;;;7.62;100.00;98821.59;5032100;28;20040;-58
2022/10/07 05:36:37;;;;;;;29.30;6.15;;;;;;;7.46;100.00;98816.66;5032301;28;20121;-58
2022/10/07 05:39:03;;;;;;;38.55;6.70;;;;;;;8.09;100.00;98817.34;5030265;28;20036;-57
2022/10/07 05:41:28;;;;;;;39.60;6.45;;;;;;;7.28;100.00;98827.31;5030288;28;20028;-57
2022/10/07 05:43:53;;;;;;;30.13;5.93;;;;;;;7.30;100.00;98816.00;5032178;28;20029;-58
2022/10/07 05:46:19;;;;;;;35.50;7.13;;;;;;;6.87;100.00;98826.97;5031951;28;20056;-56
2022/10/07 05:48:47;;;;;;;30.63;6.43;;;;;;;6.81;100.00;98819.28;5032379;28;20024;-56
2022/10/07 05:51:13;;;;;;;51.30;8.07;;;;;;;7.48;100.00;98820.09;5031318;28;20217;-56
2022/10/07 05:53:40;;;;;;;34.38;6.28;;;;;;;7.37;100.00;98811.59;5031939;28;20036;-56
2022/10/07 05:56:06;;;;;;;32.38;6.65;;;;;;;7.86;100.00;98823.78;5033060;28;20631;-56
2022/10/07 05:58:31;;;;;;;39.97;7.20;;;;;;;8.29;100.00;98820.44;5031871;28;20018;-56
2022/10/07 06:00:58;;;;;;;36.40;6.68;;;;;;;8.21;100.00;98822.31;5031267;28;20231;-55
2022/10/07 06:03:24;;;;;;;41.50;7.20;;;;;;;7.38;100.00;98830.63;5031817;28;20017;-56
2022/10/07 06:05:51;;;;;;;31.50;6.18;;;;;;;8.61;100.00;98821.59;5031950;28;20056;-55
2022/10/07 06:08:19;;;;;;;28.95;6.20;;;;;;;8.57;100.00;98819.94;5030819;28;20030;-56
2022/10/07 06:13:29;;;;;;;39.30;7.57;;;;;;;8.28;100.00;98823.91;5034039;28;20577;-57
2022/10/07 06:16:07;;;;;;;29.15;6.82;;;;;;;8.33;100.00;98820.38;5036011;28;20032;-55
2022/10/07 06:18:35;;;;;;;39.97;7.60;;;;;;;9.00;100.00;98821.63;5030701;28;20028;-57
2022/10/07 06:21:00;;;;;;;35.95;6.97;;;;;;;9.18;100.00;98811.72;5031498;28;20036;-59
2022/10/07 06:23:27;;;;;;;33.65;7.28;;;;;;;8.94;100.00;98808.78;5032519;28;20032;-59
2022/10/07 06:25:58;;;;;;;35.60;7.13;;;;;;;8.94;100.00;98811.38;5033227;28;20079;-59
2022/10/07 06:28:23;;;;;;;34.55;6.75;;;;;;;9.17;100.00;98812.59;5032472;28;20021;-56
2022/10/07 06:30:49;;;;;;;51.15;8.43;;;;;;;9.51;100.00;98806.63;5030292;28;20029;-57
2022/10/07 06:33:18;;;;;;;33.92;6.78;;;;;;;8.86;100.00;98815.91;5034822;28;20025;-55
2022/10/07 06:35:45;;;;;;;36.38;7.00;;;;;;;9.67;100.00;98813.19;5035054;28;20463;-55
2022/10/07 06:38:11;;;;;;;28.27;5.80;;;;;;;10.53;100.00;98803.16;5036334;28;20024;-58
2022/10/07 06:40:36;;;;;;;35.75;7.03;;;;;;;10.27;100.00;98813.41;5032299;28;20596;-55
2022/10/07 06:43:02;;;;;;;33.30;6.45;;;;;;;10.08;100.00;98816.50;5035888;28;20112;-55
2022/10/07 06:45:30;;;;;;;26.63;5.78;;;;;;;10.00;100.00;98818.47;5037730;28;20518;-56
2022/10/07 06:47:55;;;;;;;31.95;6.72;;;;;;;9.79;100.00;98815.47;5035742;28;20028;-55
2022/10/07 06:50:21;;;;;;;23.10;4.95;;;;;;;10.87;100.00;98806.56;5035869;28;20039;-55
2022/10/07 06:52:46;;;;;;;30.00;5.45;;;;;;;9.82;100.00;98815.41;5034474;28;20090;-55
2022/10/07 06:55:11;;;;;;;27.67;5.70;;;;;;;10.22;100.00;98813.53;5038681;28;20108;-55
2022/10/07 06:57:37;;;;;;;29.52;5.75;;;;;;;10.74;100.00;98812.13;5035909;28;20571;-55
2022/10/07 07:00:04;;;;;;;32.17;6.57;;;;;;;10.44;100.00;98813.84;5034898;28;20688;-55
2022/10/07 07:02:29;;;;;;;25.02;5.43;;;;;;;10.51;100.00;98814.53;5035582;28;20079;-55
2022/10/07 07:04:56;;;;;;;24.85;5.50;;;;;;;10.41;100.00;98819.16;5034972;28;20060;-55
2022/10/07 07:07:23;;;;;;;27.08;5.32;;;;;;;10.84;100.00;98823.16;5033814;28;20061;-57
2022/10/07 07:09:49;;;;;;;26.45;5.40;;;;;;;10.38;100.00;98814.88;5036351;28;20091;-56
2022/10/07 07:12:14;;;;;;;27.77;5.32;;;;;;;11.33;100.00;98815.63;5037527;28;20036;-56
2022/10/07 07:14:40;;;;;;;21.17;5.07;;;;;;;11.24;100.00;98819.34;5038298;28;20025;-57
2022/10/07 07:17:05;;;;;;;30.83;6.15;;;;;;;11.21;100.00;98815.97;5035099;28;20037;-55
2022/10/07 07:19:31;;;;;;;39.10;6.38;;;;;;;11.34;100.00;98812.97;5037522;28;20544;-55
2022/10/07 07:21:56;;;;;;;33.83;6.22;;;;;;;11.21;100.00;98814.22;5035667;28;20587;-56
2022/10/07 07:24:21;;;;;;;30.13;5.97;;;;;;;11.40;100.00;98816.28;5037412;28;20112;-55
2022/10/07 07:26:47;;;;;;;27.30;5.28;;;;;;;11.38;100.00;98814.56;5036293;28;20041;-56
2022/10/07 07:29:13;;;;;;;30.58;6.05;;;;;;;11.57;100.00;98816.59;5036171;28;20028;-56
2022/10/07 07:31:39;;;;;;;24.92;5.30;;;;;;;11.68;100.00;98817.09;5035773;28;20720;-56
2022/10/07 07:34:10;;;;;;;20.90;5.03;;;;;;;11.60;100.00;98803.44;5036218;28;20089;-55
2022/10/07 07:36:37;;;;;;;25.67;5.28;;;;;;;11.87;100.00;98819.09;5036366;28;20096;-56
2022/10/07 07:39:10;;;;;;;33.03;5.95;;;;;;;11.13;100.00;98811.00;5032347;28;20059;-55
2022/10/07 07:41:39;;;;;;;29.17;5.68;;;;;;;11.73;100.00;98802.13;5031332;28;20041;-55
2022/10/07 07:44:09;;;;;;;21.35;4.72;;;;;;;11.91;100.00;98807.66;5032069;28;20106;-55
2022/10/07 07:46:38;;;;;;;32.92;5.35;;;;;;;12.07;100.00;98810.63;5034622;28;20491;-56
2022/10/07 07:49:04;;;;;;;28.52;5.20;;;;;;;12.56;100.00;98806.28;5034221;28;20052;-55
2022/10/07 07:51:30;;;;;;;30.23;5.38;;;;;;;12.48;100.00;98800.47;5032791;28;20191;-57
2022/10/07 07:53:55;;;;;;;25.15;5.18;;;;;;;12.56;100.00;98803.69;5035175;28;20012;-56
2022/10/07 07:56:20;;;;;;;20.55;4.53;;;;;;;12.64;100.00;98803.41;5033371;28;20094;-55
2022/10/07 07:58:46;;;;;;;27.40;5.15;;;;;;;12.77;100.00;98802.03;5032950;28;20071;-56
2022/10/07 08:01:14;;;;;;;25.58;4.68;;;;;;;12.21;100.00;98805.78;5034347;28;20033;-59
2022/10/07 08:03:42;;;;;;;29.27;5.10;;;;;;;12.40;100.00;98800.75;5034641;28;20273;-55
2022/10/07 08:06:09;;;;;;;23.73;4.60;;;;;;;12.45;100.00;98798.81;5034793;28;20045;-56
2022/10/07 08:08:34;;;;;;;22.38;4.25;;;;;;;12.90;100.00;98803.28;5034969;28;20025;-55
2022/10/07 08:11:11;;;;;;;26.35;5.03;;;;;;;12.84;100.00;98797.44;5033121;28;20034;-58
2022/10/07 08:13:40;;;;;;;23.67;4.93;;;;;;;12.23;100.00;98803.13;5034758;28;20086;-57
2022/10/07 08:16:13;;;;;;;24.42;4.95;;;;;;;12.92;100.00;98793.63;5033211;28;20812;-55
2022/10/07 08:18:39;;;;;;;22.55;4.95;;;;;;;13.04;100.00;98797.53;5034802;28;20076;-56
2022/10/07 08:21:06;;;;;;;31.77;5.80;;;;;;;12.57;100.00;98791.44;5031061;28;20128;-58
2022/10/07 08:23:34;;;;;;;25.23;4.93;;;;;;;12.61;100.00;98783.44;5033455;28;20021;-58
2022/10/07 08:26:00;;;;;;;29.98;5.65;;;;;;;12.65;100.00;98789.41;5034011;28;20119;-55
2022/10/07 08:28:27;;;;;;;23.48;4.85;;;;;;;12.71;100.00;98795.25;5037183;28;20557;-55
2022/10/07 08:30:53;;;;;;;22.77;5.28;;;;;;;12.71;100.00;98787.41;5032548;28;20039;-58
2022/10/07 08:33:20;;;;;;;24.63;5.13;;;;;;;12.97;100.00;98787.34;5033082;28;20124;-56
2022/10/07 08:35:50;;;;;;;20.15;4.68;;;;;;;12.91;100.00;98791.06;5034668;28;20033;-58
2022/10/07 08:38:16;;;;;;;23.77;4.97;;;;;;;13.02;100.00;98793.25;5036140;28;20029;-56
2022/10/07 08:40:47;;;;;;;20.58;4.80;;;;;;;13.05;100.00;98795.75;5032267;28;20953;-56
2022/10/07 08:43:12;;;;;;;27.08;5.30;;;;;;;12.83;100.00;98793.09;5030999;28;20033;-56
2022/10/07 08:45:38;;;;;;;24.52;5.55;;;;;;;12.95;100.00;98797.03;5033989;28;20029;-57
2022/10/07 08:48:10;;;;;;;21.05;5.22;;;;;;;12.90;100.00;98794.56;5034369;28;20036;-57
2022/10/07 08:50:50;;;;;;;31.42;6.07;;;;;;;12.91;100.00;98797.13;5032506;28;20040;-58
2022/10/07 08:53:22;;;;;;;24.35;5.35;;;;;;;13.28;100.00;98800.09;5032413;28;20021;-55
2022/10/07 08:55:52;;;;;;;22.02;5.68;;;;;;;13.31;100.00;98802.66;5032085;28;20033;-55
2022/10/07 08:58:29;;;;;;;31.08;5.57;;;;;;;13.26;100.00;98805.41;5030204;28;20034;-55
2022/10/07 09:01:16;;;;;;;24.90;5.53;;;;;;;13.13;100.00;98801.56;5032407;28;20029;-56
2022/10/07 09:04:07;;;;;;;21.00;4.82;;;;;;;13.28;100.00;98794.88;5034172;28;20116;-55
2022/10/07 09:06:37;;;;;;;27.63;5.70;;;;;;;13.52;100.00;98787.81;5033517;28;20040;-55
2022/10/07 09:09:15;;;;;;;30.25;6.13;;;;;;;13.43;100.00;98791.66;5034435;28;20090;-55
2022/10/07 09:11:44;;;;;;;31.27;6.07;;;;;;;13.38;100.00;98782.28;5031802;28;20711;-55
2022/10/07 09:14:19;;;;;;;27.27;6.47;;;;;;;12.94;100.00;98775.22;5035353;28;20138;-59
2022/10/07 09:16:46;;;;;;;23.23;5.85;;;;;;;13.44;100.00;98779.44;5032983;28;20353;-58
2022/10/07 09:19:54;;;;;;;27.25;6.20;;;;;;;13.32;100.00;98779.91;5033850;28;20040;-55
2022/10/07 09:22:29;;;;;;;27.83;6.05;;;;;;;13.60;100.00;98779.63;5032832;28;20139;-55
2022/10/07 09:25:14;;;;;;;23.42;5.78;;;;;;;14.00;100.00;98781.44;5034984;28;20030;-55
2022/10/07 09:27:40;;;;;;;31.15;6.82;;;;;;;13.34;100.00;98773.69;5034293;28;20040;-56
2022/10/07 09:30:06;;;;;;;25.13;6.30;;;;;;;13.95;100.00;98772.94;5031574;28;20662;-55
2022/10/07 09:32:41;;;;;;;22.17;5.85;;;;;;;13.81;100.00;98770.06;5031546;28;20640;-55
2022/10/07 09:35:15;;;;;;;26.85;5.72;;;;;;;13.95;100.00;98769.44;5034648;28;20022;-55
2022/10/07 09:37:53;;;;;;;25.70;5.80;;;;;;;14.33;100.00;98772.19;5031404;28;20049;-56
2022/10/07 09:41:13;;;;;;;18.60;4.95;;;;;;;13.56;100.00;98771.03;5032397;28;20094;-56
2022/10/07 09:43:22;;;;;;;58.00;6.85;;;;;;;13.59;100.00;98772.72;5033577;28;20110;-56
2022/10/07 09:45:48;;;;;;;34.75;5.80;;;;;;;14.00;100.00;98781.44;5030453;28;20036;-56
2022/10/07 09:48:22;;;;;;;24.27;5.63;;;;;;;13.87;100.00;98772.41;5034688;28;20101;-56
2022/10/07 09:50:48;;;;;;;26.90;5.35;;;;;;;14.60;100.00;98778.88;5031024;28;20041;-56
2022/10/07 09:53:21;;;;;;;25.83;4.97;;;;;;;14.70;100.00;98778.47;5030603;28;20094;-55
2022/10/07 09:55:48;;;;;;;22.70;4.75;;;;;;;14.68;100.00;98773.28;5036352;28;20041;-58
2022/10/07 09:58:17;;;;;;;25.05;5.00;;;;;;;14.32;100.00;98768.75;5031375;28;20029;-57
2022/10/07 10:00:45;;;;;;;21.50;4.60;;;;;;;14.29;100.00;98768.00;5031320;28;20652;-55
2022/10/07 10:03:12;;;;;;;27.38;5.43;;;;;;;14.49;100.00;98765.34;5031768;28;20031;-55
2022/10/07 10:05:50;;;;;;;21.55;5.43;;;;;;;14.92;100.00;98768.66;5030268;28;20034;-58
2022/10/07 10:08:15;;;;;;;24.08;5.63;;;;;;;15.40;100.00;98761.16;5032816;28;20033;-56
2022/10/07 10:10:50;;;;;;;38.63;6.53;;;;;;;14.80;100.00;98756.13;5031797;28;20095;-56
2022/10/07 10:13:24;;;;;;;30.65;6.50;;;;;;;15.18;100.00;98754.31;5029583;28;20040;-58
2022/10/07 10:15:49;;;;;;;25.92;5.97;;;;;;;15.38;100.00;98758.63;5033256;28;20036;-55
2022/10/07 10:18:39;;;;;;;27.92;6.30;;;;;;;15.19;100.00;98750.75;5033130;28;20036;-56
2022/10/07 10:21:21;;;;;;;26.23;6.25;;;;;;;15.27;100.00;98757.44;5032379;28;20037;-58
2022/10/07 10:23:50;;;;;;;19.65;5.25;;;;;;;15.03;100.00;98747.16;5032892;28;20028;-56
2022/10/07 10:26:37;;;;;;;28.45;6.28;;;;;;;14.93;100.00;98748.53;5031082;28;20116;-56
2022/10/07 10:29:13;;;;;;;23.45;5.78;;;;;;;15.07;100.00;98748.75;5031562;28;20032;-56
2022/10/07 10:32:00;;;;;;;20.63;5.93;;;;;;;15.03;100.00;98745.41;5032108;28;20048;-55
2022/10/07 10:34:37;;;;;;;25.65;5.90;;;;;;;15.48;100.00;98743.25;5031043;28;20974;-57
2022/10/07 10:37:19;;;;;;;24.75;5.70;;;;;;;15.50;100.00;98749.28;5031302;28;20037;-55
2022/10/07 10:40:18;;;;;;;24.65;5.82;;;;;;;15.70;100.00;98743.03;5032850;28;20021;-54
2022/10/07 10:42:47;;;;;;;29.63;5.60;;;;;;;16.38;100.00;98737.81;5031402;28;20045;-55
2022/10/07 10:45:43;;;;;;;18.65;5.20;;;;;;;15.54;100.00;98737.69;5031286;28;20587;-57
2022/10/07 10:48:28;;;;;;;24.55;5.70;;;;;;;16.01;100.00;98731.00;5031975;28;20502;-57
2022/10/07 10:50:59;;;;;;;22.98;5.90;;;;;;;16.32;100.00;98727.59;5030509;28;20083;-55
2022/10/07 10:53:32;;;;;;;20.50;5.27;;;;;;;16.60;100.00;98723.50;5031403;28;20028;-56
2022/10/07 10:56:14;;;;;;;22.00;4.93;;;;;;;16.00;100.00;98727.50;5032804;28;20271;-57
2022/10/07 10:59:17;;;;;;;28.15;5.82;;;;;;;15.85;100.00;98717.75;5031892;28;20033;-56
2022/10/07 11:01:45;;;;;;;24.05;4.97;;;;;;;15.72;100.00;98706.13;5030725;28;20040;-56
2022/10/07 11:04:37;;;;;;;18.80;4.32;;;;;;;16.81;100.00;98707.44;5031693;28;20461;-56
2022/10/07 11:07:28;;;;;;;23.42;4.93;;;;;;;16.77;100.00;98707.59;5032356;28;20766;-56
2022/10/07 11:09:58;;;;;;;22.52;4.60;;;;;;;16.34;100.00;98702.03;5032331;28;20075;-55
2022/10/07 11:12:26;;;;;;;19.27;4.30;;;;;;;16.86;100.00;98694.91;5031918;28;20132;-59
2022/10/07 11:14:58;;;;;;;23.10;4.90;;;;;;;16.87;100.00;98693.94;5030346;28;20605;-55
2022/10/07 11:17:29;;;;;;;22.63;5.03;;;;;;;16.94;100.00;98687.41;5033030;28;20597;-58
2022/10/07 11:20:03;;;;;;;23.67;4.82;;;;;;;17.30;100.00;98695.00;5037059;28;20383;-57
2022/10/07 11:22:40;;;;;;;24.92;4.35;;;;;;;17.44;100.00;98686.31;5035861;28;20196;-57
2022/10/07 11:25:42;;;;;;;21.13;4.95;;;;;;;17.52;100.00;98676.16;5034902;28;20037;-57
2022/10/07 11:28:21;;;;;;;23.95;4.85;;;;;;;16.79;100.00;98672.44;5035183;28;20107;-57
2022/10/07 11:30:56;;;;;;;17.08;3.72;;;;;;;17.30;100.00;98667.81;5032899;28;20065;-56
2022/10/07 11:33:34;;;;;;;23.52;5.38;;;;;;;17.08;100.00;98671.66;5034325;28;20699;-56
2022/10/07 11:36:13;;;;;;;27.38;5.13;;;;;;;17.52;100.00;98662.97;5033677;28;20053;-56
2022/10/07 11:38:38;;;;;;;41.38;5.10;;;;;;;17.92;100.00;98660.63;5035757;28;20119;-56
2022/10/07 11:41:34;;;;;;;23.95;5.38;;;;;;;17.77;100.00;98653.59;5035220;28;20132;-56
2022/10/07 11:44:08;;;;;;;22.38;4.72;;;;;;;18.14;100.00;98661.97;5033984;28;20037;-56